LTAY/DNZ METAR and TAF weather

Enter ICAO airport designator
Station Type Date Time Source
LTAY METAR 2019/02/18 03:50 UTC NOAA

LTAY 180350Z 00000KT CAVOK M03/M03 Q1021


Station Type Date Time Source
LTAY Decoded METAR 2019/02/18 03:50 UTC NOAA

Cardak, Turkey (LTAY) 37-47N 029-42E
Feb 17, 2019 - 10:50 PM EST / 2019.02.18 0350 UTC
Wind: Calm:0
Visibility: greater than 7 mile(s):0
Temperature: 26 F (-3 C)
Dew Point: 26 F (-3 C)
Relative Humidity: 100%
Pressure (altimeter): 30.15 in. Hg (1021 hPa)
ob: LTAY 180350Z 00000KT CAVOK M03/M03 Q1021
cycle: 4

Station Type Date Time Source
LTAY TAF UTC NOAA

Error!


Example: see airport list